sensor_id;sensor_type;location;lat;lon;timestamp;P1;durP1;ratioP1;P2;durP2;ratioP2
1949;SDS011;975;48.760;9.152;2024-02-26T00:00:58;3.55;;;1.40;;
1949;SDS011;975;48.760;9.152;2024-02-26T00:03:46;3.00;;;1.17;;
1949;SDS011;975;48.760;9.152;2024-02-26T00:06:38;3.03;;;1.60;;
1949;SDS011;975;48.760;9.152;2024-02-26T00:09:28;3.42;;;1.40;;
1949;SDS011;975;48.760;9.152;2024-02-26T00:12:16;5.30;;;1.40;;
1949;SDS011;975;48.760;9.152;2024-02-26T00:15:04;1.92;;;1.10;;
1949;SDS011;975;48.760;9.152;2024-02-26T00:17:52;2.25;;;1.52;;
1949;SDS011;975;48.760;9.152;2024-02-26T00:20:40;3.78;;;1.77;;
1949;SDS011;975;48.760;9.152;2024-02-26T00:23:28;3.22;;;1.10;;
1949;SDS011;975;48.760;9.152;2024-02-26T00:26:18;2.05;;;1.23;;
1949;SDS011;975;48.760;9.152;2024-02-26T00:29:05;2.42;;;1.00;;
1949;SDS011;975;48.760;9.152;2024-02-26T00:31:53;3.30;;;1.58;;
1949;SDS011;975;48.760;9.152;2024-02-26T00:34:41;2.05;;;1.20;;
1949;SDS011;975;48.760;9.152;2024-02-26T00:37:29;4.05;;;1.67;;
1949;SDS011;975;48.760;9.152;2024-02-26T00:40:17;1.13;;;0.90;;
1949;SDS011;975;48.760;9.152;2024-02-26T00:43:06;1.27;;;1.08;;
1949;SDS011;975;48.760;9.152;2024-02-26T00:45:54;1.77;;;1.20;;
1949;SDS011;975;48.760;9.152;2024-02-26T00:48:42;2.75;;;1.33;;
1949;SDS011;975;48.760;9.152;2024-02-26T00:51:30;2.67;;;0.82;;
1949;SDS011;975;48.760;9.152;2024-02-26T00:54:18;2.17;;;1.10;;
1949;SDS011;975;48.760;9.152;2024-02-26T00:57:09;2.25;;;1.08;;
1949;SDS011;975;48.760;9.152;2024-02-26T00:59:58;1.85;;;0.93;;
1949;SDS011;975;48.760;9.152;2024-02-26T01:02:46;2.15;;;1.15;;
1949;SDS011;975;48.760;9.152;2024-02-26T01:05:34;2.83;;;0.90;;
1949;SDS011;975;48.760;9.152;2024-02-26T01:08:23;2.28;;;1.52;;
1949;SDS011;975;48.760;9.152;2024-02-26T01:11:11;1.50;;;0.93;;
1949;SDS011;975;48.760;9.152;2024-02-26T01:13:59;2.65;;;1.17;;
1949;SDS011;975;48.760;9.152;2024-02-26T01:16:48;3.90;;;1.27;;
1949;SDS011;975;48.760;9.152;2024-02-26T01:19:36;2.88;;;1.10;;
1949;SDS011;975;48.760;9.152;2024-02-26T01:22:24;4.30;;;0.95;;
1949;SDS011;975;48.760;9.152;2024-02-26T01:25:12;2.08;;;0.95;;
1949;SDS011;975;48.760;9.152;2024-02-26T01:28:01;2.97;;;1.30;;
1949;SDS011;975;48.760;9.152;2024-02-26T01:30:49;3.00;;;1.10;;
1949;SDS011;975;48.760;9.152;2024-02-26T01:33:38;2.47;;;1.30;;
1949;SDS011;975;48.760;9.152;2024-02-26T01:36:26;3.38;;;1.10;;
1949;SDS011;975;48.760;9.152;2024-02-26T01:39:17;2.72;;;1.10;;
1949;SDS011;975;48.760;9.152;2024-02-26T01:42:04;3.20;;;1.30;;
1949;SDS011;975;48.760;9.152;2024-02-26T01:44:52;2.00;;;1.00;;
1949;SDS011;975;48.760;9.152;2024-02-26T01:47:40;3.50;;;1.23;;
1949;SDS011;975;48.760;9.152;2024-02-26T01:50:33;2.85;;;1.23;;
1949;SDS011;975;48.760;9.152;2024-02-26T01:53:20;1.27;;;0.98;;
1949;SDS011;975;48.760;9.152;2024-02-26T01:56:08;2.08;;;1.00;;
1949;SDS011;975;48.760;9.152;2024-02-26T01:58:56;1.88;;;0.90;;
1949;SDS011;975;48.760;9.152;2024-02-26T02:01:45;2.50;;;1.20;;
1949;SDS011;975;48.760;9.152;2024-02-26T02:04:34;2.03;;;1.38;;
1949;SDS011;975;48.760;9.152;2024-02-26T02:07:24;2.10;;;1.15;;
1949;SDS011;975;48.760;9.152;2024-02-26T02:10:14;2.53;;;1.08;;
1949;SDS011;975;48.760;9.152;2024-02-26T02:13:03;1.75;;;1.00;;
1949;SDS011;975;48.760;9.152;2024-02-26T02:15:51;1.30;;;1.00;;
1949;SDS011;975;48.760;9.152;2024-02-26T02:18:40;1.52;;;1.20;;
1949;SDS011;975;48.760;9.152;2024-02-26T02:21:29;1.25;;;1.00;;
1949;SDS011;975;48.760;9.152;2024-02-26T02:24:17;1.88;;;1.00;;
1949;SDS011;975;48.760;9.152;2024-02-26T02:27:04;3.13;;;1.35;;
1949;SDS011;975;48.760;9.152;2024-02-26T02:29:52;1.85;;;1.25;;
1949;SDS011;975;48.760;9.152;2024-02-26T02:32:40;1.60;;;1.08;;
1949;SDS011;975;48.760;9.152;2024-02-26T02:35:28;4.85;;;1.38;;
1949;SDS011;975;48.760;9.152;2024-02-26T02:38:17;2.42;;;1.42;;
1949;SDS011;975;48.760;9.152;2024-02-26T02:41:05;2.05;;;1.30;;
1949;SDS011;975;48.760;9.152;2024-02-26T02:43:53;4.40;;;1.38;;
1949;SDS011;975;48.760;9.152;2024-02-26T02:46:41;2.67;;;1.20;;
1949;SDS011;975;48.760;9.152;2024-02-26T02:49:29;1.48;;;0.98;;
1949;SDS011;975;48.760;9.152;2024-02-26T02:52:17;2.05;;;1.25;;
1949;SDS011;975;48.760;9.152;2024-02-26T02:55:06;1.83;;;1.10;;
1949;SDS011;975;48.760;9.152;2024-02-26T02:57:54;1.45;;;0.63;;
1949;SDS011;975;48.760;9.152;2024-02-26T03:00:42;1.55;;;0.95;;
1949;SDS011;975;48.760;9.152;2024-02-26T03:03:30;1.60;;;0.93;;
1949;SDS011;975;48.760;9.152;2024-02-26T03:06:17;1.30;;;0.90;;
1949;SDS011;975;48.760;9.152;2024-02-26T03:09:06;2.08;;;0.70;;
1949;SDS011;975;48.760;9.152;2024-02-26T03:11:55;3.58;;;1.23;;
1949;SDS011;975;48.760;9.152;2024-02-26T03:14:43;2.08;;;0.98;;
1949;SDS011;975;48.760;9.152;2024-02-26T03:17:31;2.35;;;1.20;;
1949;SDS011;975;48.760;9.152;2024-02-26T03:20:19;1.00;;;0.93;;
1949;SDS011;975;48.760;9.152;2024-02-26T03:23:07;2.08;;;1.02;;
1949;SDS011;975;48.760;9.152;2024-02-26T03:25:58;1.98;;;1.10;;
1949;SDS011;975;48.760;9.152;2024-02-26T03:28:47;1.05;;;0.82;;
1949;SDS011;975;48.760;9.152;2024-02-26T03:31:35;1.13;;;0.88;;
1949;SDS011;975;48.760;9.152;2024-02-26T03:34:23;1.40;;;0.80;;
1949;SDS011;975;48.760;9.152;2024-02-26T03:37:12;1.45;;;0.95;;
1949;SDS011;975;48.760;9.152;2024-02-26T03:40:01;1.35;;;1.10;;
1949;SDS011;975;48.760;9.152;2024-02-26T03:42:49;2.88;;;1.00;;
1949;SDS011;975;48.760;9.152;2024-02-26T03:45:42;2.15;;;1.00;;
1949;SDS011;975;48.760;9.152;2024-02-26T03:48:30;2.60;;;0.80;;
1949;SDS011;975;48.760;9.152;2024-02-26T03:51:18;3.35;;;1.40;;
1949;SDS011;975;48.760;9.152;2024-02-26T03:54:06;0.77;;;0.77;;
1949;SDS011;975;48.760;9.152;2024-02-26T03:56:54;1.38;;;0.98;;
1949;SDS011;975;48.760;9.152;2024-02-26T03:59:42;0.80;;;0.80;;
1949;SDS011;975;48.760;9.152;2024-02-26T04:02:31;1.83;;;1.08;;
1949;SDS011;975;48.760;9.152;2024-02-26T04:05:19;1.85;;;1.08;;
1949;SDS011;975;48.760;9.152;2024-02-26T04:08:07;4.35;;;1.63;;
1949;SDS011;975;48.760;9.152;2024-02-26T04:10:56;1.13;;;1.00;;
1949;SDS011;975;48.760;9.152;2024-02-26T04:13:44;2.28;;;1.35;;
1949;SDS011;975;48.760;9.152;2024-02-26T04:16:35;1.88;;;1.10;;
1949;SDS011;975;48.760;9.152;2024-02-26T04:19:24;2.40;;;1.15;;
1949;SDS011;975;48.760;9.152;2024-02-26T04:22:14;1.85;;;1.10;;
1949;SDS011;975;48.760;9.152;2024-02-26T04:25:02;2.28;;;1.08;;
1949;SDS011;975;48.760;9.152;2024-02-26T04:27:50;1.60;;;1.00;;
1949;SDS011;975;48.760;9.152;2024-02-26T04:30:38;3.33;;;1.17;;
1949;SDS011;975;48.760;9.152;2024-02-26T04:33:26;1.88;;;0.90;;
1949;SDS011;975;48.760;9.152;2024-02-26T04:36:23;1.25;;;1.00;;
1949;SDS011;975;48.760;9.152;2024-02-26T04:39:11;1.83;;;1.05;;
1949;SDS011;975;48.760;9.152;2024-02-26T04:41:59;1.85;;;0.77;;
1949;SDS011;975;48.760;9.152;2024-02-26T04:44:49;2.05;;;0.95;;
1949;SDS011;975;48.760;9.152;2024-02-26T04:47:37;1.90;;;1.13;;
1949;SDS011;975;48.760;9.152;2024-02-26T04:50:25;2.95;;;1.25;;
1949;SDS011;975;48.760;9.152;2024-02-26T04:53:14;2.40;;;1.23;;
1949;SDS011;975;48.760;9.152;2024-02-26T04:56:02;2.50;;;0.90;;
1949;SDS011;975;48.760;9.152;2024-02-26T04:58:50;1.13;;;0.88;;
1949;SDS011;975;48.760;9.152;2024-02-26T05:01:37;3.22;;;1.13;;
1949;SDS011;975;48.760;9.152;2024-02-26T05:04:29;2.58;;;0.70;;
1949;SDS011;975;48.760;9.152;2024-02-26T05:07:17;2.05;;;0.80;;
1949;SDS011;975;48.760;9.152;2024-02-26T05:10:10;2.83;;;1.00;;
1949;SDS011;975;48.760;9.152;2024-02-26T05:12:58;1.52;;;1.30;;
1949;SDS011;975;48.760;9.152;2024-02-26T05:15:45;1.25;;;1.00;;
1949;SDS011;975;48.760;9.152;2024-02-26T05:18:35;2.15;;;0.90;;
1949;SDS011;975;48.760;9.152;2024-02-26T05:21:22;1.30;;;1.00;;
1949;SDS011;975;48.760;9.152;2024-02-26T05:24:11;2.28;;;1.13;;
1949;SDS011;975;48.760;9.152;2024-02-26T05:27:00;3.95;;;1.45;;
1949;SDS011;975;48.760;9.152;2024-02-26T05:29:48;2.50;;;1.48;;
1949;SDS011;975;48.760;9.152;2024-02-26T05:32:37;3.30;;;1.50;;
1949;SDS011;975;48.760;9.152;2024-02-26T05:35:25;3.42;;;1.20;;
1949;SDS011;975;48.760;9.152;2024-02-26T05:38:13;1.65;;;1.17;;
1949;SDS011;975;48.760;9.152;2024-02-26T05:41:01;1.60;;;1.15;;
1949;SDS011;975;48.760;9.152;2024-02-26T05:43:51;2.47;;;1.38;;
1949;SDS011;975;48.760;9.152;2024-02-26T05:46:39;1.85;;;1.20;;
1949;SDS011;975;48.760;9.152;2024-02-26T05:49:27;1.00;;;0.90;;
1949;SDS011;975;48.760;9.152;2024-02-26T05:52:15;2.15;;;1.30;;
1949;SDS011;975;48.760;9.152;2024-02-26T05:55:04;2.17;;;1.20;;
1949;SDS011;975;48.760;9.152;2024-02-26T05:57:52;2.10;;;1.45;;
1949;SDS011;975;48.760;9.152;2024-02-26T06:00:41;3.17;;;1.48;;
1949;SDS011;975;48.760;9.152;2024-02-26T06:03:29;5.75;;;2.08;;
1949;SDS011;975;48.760;9.152;2024-02-26T06:06:17;5.38;;;1.80;;
1949;SDS011;975;48.760;9.152;2024-02-26T06:09:05;2.30;;;1.60;;
1949;SDS011;975;48.760;9.152;2024-02-26T06:11:52;4.22;;;1.50;;
1949;SDS011;975;48.760;9.152;2024-02-26T06:14:47;3.03;;;1.65;;
1949;SDS011;975;48.760;9.152;2024-02-26T06:17:36;5.22;;;1.98;;
1949;SDS011;975;48.760;9.152;2024-02-26T06:20:24;2.45;;;1.20;;
1949;SDS011;975;48.760;9.152;2024-02-26T06:23:12;3.15;;;1.15;;
1949;SDS011;975;48.760;9.152;2024-02-26T06:25:59;3.38;;;1.58;;
1949;SDS011;975;48.760;9.152;2024-02-26T06:28:47;4.82;;;1.30;;
1949;SDS011;975;48.760;9.152;2024-02-26T06:31:35;1.38;;;1.05;;
1949;SDS011;975;48.760;9.152;2024-02-26T06:34:24;2.50;;;1.38;;
1949;SDS011;975;48.760;9.152;2024-02-26T06:37:12;1.35;;;1.00;;
1949;SDS011;975;48.760;9.152;2024-02-26T06:40:01;2.55;;;1.67;;
1949;SDS011;975;48.760;9.152;2024-02-26T06:42:52;2.72;;;1.55;;
1949;SDS011;975;48.760;9.152;2024-02-26T06:45:39;4.68;;;1.42;;
1949;SDS011;975;48.760;9.152;2024-02-26T06:48:27;3.85;;;1.38;;
1949;SDS011;975;48.760;9.152;2024-02-26T06:51:18;1.90;;;1.30;;
1949;SDS011;975;48.760;9.152;2024-02-26T06:54:06;2.70;;;1.38;;
1949;SDS011;975;48.760;9.152;2024-02-26T06:56:55;1.23;;;1.10;;
1949;SDS011;975;48.760;9.152;2024-02-26T06:59:43;1.95;;;1.15;;
1949;SDS011;975;48.760;9.152;2024-02-26T07:02:32;2.83;;;1.38;;
1949;SDS011;975;48.760;9.152;2024-02-26T07:05:20;2.70;;;1.15;;
1949;SDS011;975;48.760;9.152;2024-02-26T07:08:09;3.25;;;1.27;;
1949;SDS011;975;48.760;9.152;2024-02-26T07:10:57;5.63;;;1.65;;
1949;SDS011;975;48.760;9.152;2024-02-26T07:13:45;2.60;;;1.40;;
1949;SDS011;975;48.760;9.152;2024-02-26T07:16:35;4.28;;;1.60;;
1949;SDS011;975;48.760;9.152;2024-02-26T07:19:22;3.25;;;1.77;;
1949;SDS011;975;48.760;9.152;2024-02-26T07:22:10;3.90;;;1.77;;
1949;SDS011;975;48.760;9.152;2024-02-26T07:25:00;4.03;;;1.40;;
1949;SDS011;975;48.760;9.152;2024-02-26T07:27:49;2.65;;;1.35;;
1949;SDS011;975;48.760;9.152;2024-02-26T07:30:37;4.50;;;1.88;;
1949;SDS011;975;48.760;9.152;2024-02-26T07:33:25;5.13;;;1.80;;
1949;SDS011;975;48.760;9.152;2024-02-26T07:36:13;3.47;;;1.42;;
1949;SDS011;975;48.760;9.152;2024-02-26T07:39:01;3.95;;;1.48;;
1949;SDS011;975;48.760;9.152;2024-02-26T07:41:50;2.80;;;1.65;;
1949;SDS011;975;48.760;9.152;2024-02-26T07:44:38;4.57;;;0.93;;
1949;SDS011;975;48.760;9.152;2024-02-26T07:47:28;4.60;;;1.70;;
1949;SDS011;975;48.760;9.152;2024-02-26T07:50:17;5.10;;;1.83;;
1949;SDS011;975;48.760;9.152;2024-02-26T07:53:05;3.70;;;1.80;;
1949;SDS011;975;48.760;9.152;2024-02-26T07:55:53;5.28;;;2.30;;
1949;SDS011;975;48.760;9.152;2024-02-26T07:58:42;3.70;;;1.60;;
1949;SDS011;975;48.760;9.152;2024-02-26T08:01:30;2.92;;;1.63;;
1949;SDS011;975;48.760;9.152;2024-02-26T08:04:19;4.15;;;1.80;;
1949;SDS011;975;48.760;9.152;2024-02-26T08:07:07;4.38;;;1.63;;
1949;SDS011;975;48.760;9.152;2024-02-26T08:09:55;6.63;;;2.50;;
1949;SDS011;975;48.760;9.152;2024-02-26T08:12:43;6.40;;;1.67;;
1949;SDS011;975;48.760;9.152;2024-02-26T08:15:33;3.03;;;1.70;;
1949;SDS011;975;48.760;9.152;2024-02-26T08:18:21;4.72;;;1.90;;
1949;SDS011;975;48.760;9.152;2024-02-26T08:21:09;4.95;;;2.22;;
1949;SDS011;975;48.760;9.152;2024-02-26T08:23:56;4.03;;;2.38;;
1949;SDS011;975;48.760;9.152;2024-02-26T08:26:45;4.63;;;1.95;;
1949;SDS011;975;48.760;9.152;2024-02-26T08:29:35;3.33;;;2.05;;
1949;SDS011;975;48.760;9.152;2024-02-26T08:32:25;4.80;;;2.00;;
1949;SDS011;975;48.760;9.152;2024-02-26T08:35:13;3.67;;;2.00;;
1949;SDS011;975;48.760;9.152;2024-02-26T08:38:01;5.82;;;2.05;;
1949;SDS011;975;48.760;9.152;2024-02-26T08:40:49;3.55;;;1.80;;
1949;SDS011;975;48.760;9.152;2024-02-26T08:43:40;2.97;;;1.80;;
1949;SDS011;975;48.760;9.152;2024-02-26T08:46:28;3.80;;;2.17;;
1949;SDS011;975;48.760;9.152;2024-02-26T08:49:17;5.80;;;2.30;;
1949;SDS011;975;48.760;9.152;2024-02-26T08:52:05;4.30;;;2.30;;
1949;SDS011;975;48.760;9.152;2024-02-26T08:54:53;3.65;;;1.67;;
1949;SDS011;975;48.760;9.152;2024-02-26T08:57:41;4.13;;;1.50;;
1949;SDS011;975;48.760;9.152;2024-02-26T09:00:29;2.10;;;1.50;;
1949;SDS011;975;48.760;9.152;2024-02-26T09:03:17;2.30;;;1.20;;
1949;SDS011;975;48.760;9.152;2024-02-26T09:06:06;2.40;;;1.33;;
1949;SDS011;975;48.760;9.152;2024-02-26T09:08:54;3.90;;;1.23;;
1949;SDS011;975;48.760;9.152;2024-02-26T09:11:42;1.83;;;1.10;;
1949;SDS011;975;48.760;9.152;2024-02-26T09:14:29;1.35;;;1.23;;
1949;SDS011;975;48.760;9.152;2024-02-26T09:17:17;2.00;;;1.10;;
1949;SDS011;975;48.760;9.152;2024-02-26T09:20:06;2.10;;;1.25;;
1949;SDS011;975;48.760;9.152;2024-02-26T09:25:44;1.20;;;1.10;;
1949;SDS011;975;48.760;9.152;2024-02-26T09:28:35;2.72;;;1.10;;
1949;SDS011;975;48.760;9.152;2024-02-26T09:31:24;3.05;;;1.23;;
1949;SDS011;975;48.760;9.152;2024-02-26T09:34:12;2.53;;;1.23;;
1949;SDS011;975;48.760;9.152;2024-02-26T09:37:00;7.60;;;1.75;;
1949;SDS011;975;48.760;9.152;2024-02-26T09:39:48;2.03;;;1.25;;
1949;SDS011;975;48.760;9.152;2024-02-26T09:42:37;1.52;;;1.10;;
1949;SDS011;975;48.760;9.152;2024-02-26T09:45:29;1.80;;;1.13;;
1949;SDS011;975;48.760;9.152;2024-02-26T09:48:18;2.38;;;1.30;;
1949;SDS011;975;48.760;9.152;2024-02-26T09:51:06;3.35;;;1.58;;
1949;SDS011;975;48.760;9.152;2024-02-26T09:53:54;4.57;;;1.95;;
1949;SDS011;975;48.760;9.152;2024-02-26T09:56:42;4.78;;;2.20;;
1949;SDS011;975;48.760;9.152;2024-02-26T10:02:21;2.92;;;1.80;;
1949;SDS011;975;48.760;9.152;2024-02-26T10:05:10;4.60;;;2.03;;
1949;SDS011;975;48.760;9.152;2024-02-26T10:08:00;6.32;;;1.85;;
1949;SDS011;975;48.760;9.152;2024-02-26T10:10:48;4.13;;;1.90;;
1949;SDS011;975;48.760;9.152;2024-02-26T10:13:36;3.88;;;2.17;;
1949;SDS011;975;48.760;9.152;2024-02-26T10:16:24;4.53;;;2.13;;
1949;SDS011;975;48.760;9.152;2024-02-26T10:19:19;3.75;;;1.67;;
1949;SDS011;975;48.760;9.152;2024-02-26T10:22:15;3.50;;;2.10;;
1949;SDS011;975;48.760;9.152;2024-02-26T10:25:04;4.35;;;2.03;;
1949;SDS011;975;48.760;9.152;2024-02-26T10:27:52;5.05;;;1.80;;
1949;SDS011;975;48.760;9.152;2024-02-26T10:30:40;3.67;;;1.92;;
1949;SDS011;975;48.760;9.152;2024-02-26T10:33:28;5.20;;;2.38;;
1949;SDS011;975;48.760;9.152;2024-02-26T10:36:17;3.90;;;1.90;;
1949;SDS011;975;48.760;9.152;2024-02-26T10:39:05;4.80;;;2.33;;
1949;SDS011;975;48.760;9.152;2024-02-26T10:41:53;2.95;;;1.70;;
1949;SDS011;975;48.760;9.152;2024-02-26T10:44:41;4.72;;;2.22;;
1949;SDS011;975;48.760;9.152;2024-02-26T10:47:28;3.38;;;2.10;;
1949;SDS011;975;48.760;9.152;2024-02-26T10:50:17;5.88;;;2.10;;
1949;SDS011;975;48.760;9.152;2024-02-26T10:53:06;3.20;;;1.67;;
1949;SDS011;975;48.760;9.152;2024-02-26T10:55:58;2.85;;;1.63;;
1949;SDS011;975;48.760;9.152;2024-02-26T10:58:49;3.05;;;1.50;;
1949;SDS011;975;48.760;9.152;2024-02-26T11:01:37;2.60;;;1.58;;
1949;SDS011;975;48.760;9.152;2024-02-26T11:04:26;3.05;;;1.95;;
1949;SDS011;975;48.760;9.152;2024-02-26T11:07:15;4.40;;;1.42;;
1949;SDS011;975;48.760;9.152;2024-02-26T11:10:05;2.35;;;1.25;;
1949;SDS011;975;48.760;9.152;2024-02-26T11:12:53;4.45;;;1.50;;
1949;SDS011;975;48.760;9.152;2024-02-26T11:15:42;1.65;;;1.40;;
1949;SDS011;975;48.760;9.152;2024-02-26T11:18:30;2.17;;;1.17;;
1949;SDS011;975;48.760;9.152;2024-02-26T11:21:22;3.00;;;1.77;;
1949;SDS011;975;48.760;9.152;2024-02-26T11:24:15;1.63;;;1.20;;
1949;SDS011;975;48.760;9.152;2024-02-26T11:27:06;2.83;;;1.52;;
1949;SDS011;975;48.760;9.152;2024-02-26T11:29:55;9.55;;;1.60;;
1949;SDS011;975;48.760;9.152;2024-02-26T11:32:45;3.88;;;2.10;;
1949;SDS011;975;48.760;9.152;2024-02-26T11:35:33;2.20;;;1.52;;
1949;SDS011;975;48.760;9.152;2024-02-26T11:38:21;3.42;;;1.52;;
1949;SDS011;975;48.760;9.152;2024-02-26T11:41:11;1.67;;;1.52;;
1949;SDS011;975;48.760;9.152;2024-02-26T11:44:00;3.25;;;1.45;;
1949;SDS011;975;48.760;9.152;2024-02-26T11:46:50;3.83;;;1.35;;
1949;SDS011;975;48.760;9.152;2024-02-26T11:49:38;4.63;;;1.73;;
1949;SDS011;975;48.760;9.152;2024-02-26T11:52:26;2.72;;;1.38;;
1949;SDS011;975;48.760;9.152;2024-02-26T11:55:14;3.03;;;1.52;;
1949;SDS011;975;48.760;9.152;2024-02-26T11:58:18;3.97;;;1.33;;
1949;SDS011;975;48.760;9.152;2024-02-26T12:04:14;2.03;;;1.33;;
1949;SDS011;975;48.760;9.152;2024-02-26T12:07:03;2.50;;;1.30;;
1949;SDS011;975;48.760;9.152;2024-02-26T12:09:51;1.50;;;0.98;;
1949;SDS011;975;48.760;9.152;2024-02-26T12:12:39;3.20;;;0.93;;
1949;SDS011;975;48.760;9.152;2024-02-26T12:15:36;3.08;;;1.15;;
1949;SDS011;975;48.760;9.152;2024-02-26T12:18:24;2.78;;;1.05;;
1949;SDS011;975;48.760;9.152;2024-02-26T12:21:13;2.90;;;1.42;;
1949;SDS011;975;48.760;9.152;2024-02-26T12:24:10;1.98;;;1.13;;
1949;SDS011;975;48.760;9.152;2024-02-26T12:26:59;2.33;;;1.35;;
1949;SDS011;975;48.760;9.152;2024-02-26T12:29:46;5.95;;;1.30;;
1949;SDS011;975;48.760;9.152;2024-02-26T12:32:35;1.58;;;1.23;;
1949;SDS011;975;48.760;9.152;2024-02-26T12:35:23;5.28;;;1.60;;
1949;SDS011;975;48.760;9.152;2024-02-26T12:38:12;4.95;;;2.20;;
1949;SDS011;975;48.760;9.152;2024-02-26T12:41:06;4.32;;;1.40;;
1949;SDS011;975;48.760;9.152;2024-02-26T12:43:54;1.92;;;1.25;;
1949;SDS011;975;48.760;9.152;2024-02-26T12:46:42;3.42;;;2.08;;
1949;SDS011;975;48.760;9.152;2024-02-26T12:49:30;3.17;;;1.45;;
1949;SDS011;975;48.760;9.152;2024-02-26T12:52:18;2.90;;;1.65;;
1949;SDS011;975;48.760;9.152;2024-02-26T12:55:09;5.15;;;1.42;;
1949;SDS011;975;48.760;9.152;2024-02-26T12:57:58;2.53;;;1.30;;
1949;SDS011;975;48.760;9.152;2024-02-26T13:00:46;3.20;;;1.45;;
1949;SDS011;975;48.760;9.152;2024-02-26T13:03:35;4.38;;;1.65;;
1949;SDS011;975;48.760;9.152;2024-02-26T13:06:24;3.95;;;1.70;;
1949;SDS011;975;48.760;9.152;2024-02-26T13:09:12;4.90;;;1.92;;
1949;SDS011;975;48.760;9.152;2024-02-26T13:12:03;3.97;;;1.60;;
1949;SDS011;975;48.760;9.152;2024-02-26T13:14:58;5.25;;;1.80;;
1949;SDS011;975;48.760;9.152;2024-02-26T13:17:46;2.38;;;1.40;;
1949;SDS011;975;48.760;9.152;2024-02-26T13:20:34;3.35;;;1.40;;
1949;SDS011;975;48.760;9.152;2024-02-26T13:23:22;3.03;;;1.70;;
1949;SDS011;975;48.760;9.152;2024-02-26T13:26:11;2.47;;;1.23;;
1949;SDS011;975;48.760;9.152;2024-02-26T13:29:02;2.95;;;1.20;;
1949;SDS011;975;48.760;9.152;2024-02-26T13:31:53;2.85;;;1.30;;
1949;SDS011;975;48.760;9.152;2024-02-26T13:34:41;2.83;;;1.40;;
1949;SDS011;975;48.760;9.152;2024-02-26T13:37:29;2.05;;;1.20;;
1949;SDS011;975;48.760;9.152;2024-02-26T13:40:17;2.72;;;1.30;;
1949;SDS011;975;48.760;9.152;2024-02-26T13:43:07;3.78;;;1.55;;
1949;SDS011;975;48.760;9.152;2024-02-26T13:45:56;5.35;;;1.00;;
1949;SDS011;975;48.760;9.152;2024-02-26T13:48:44;2.63;;;1.33;;
1949;SDS011;975;48.760;9.152;2024-02-26T13:51:31;1.85;;;1.00;;
1949;SDS011;975;48.760;9.152;2024-02-26T13:54:21;2.45;;;0.73;;
1949;SDS011;975;48.760;9.152;2024-02-26T13:57:08;2.40;;;1.30;;
1949;SDS011;975;48.760;9.152;2024-02-26T13:59:56;4.68;;;1.13;;
1949;SDS011;975;48.760;9.152;2024-02-26T14:02:45;1.35;;;0.80;;
1949;SDS011;975;48.760;9.152;2024-02-26T14:05:33;0.93;;;0.85;;
1949;SDS011;975;48.760;9.152;2024-02-26T14:08:21;1.10;;;0.70;;
1949;SDS011;975;48.760;9.152;2024-02-26T14:11:09;1.05;;;0.65;;
1949;SDS011;975;48.760;9.152;2024-02-26T14:13:57;1.40;;;0.50;;
1949;SDS011;975;48.760;9.152;2024-02-26T14:16:45;1.95;;;0.55;;
1949;SDS011;975;48.760;9.152;2024-02-26T14:19:34;3.13;;;0.80;;
1949;SDS011;975;48.760;9.152;2024-02-26T14:22:24;1.85;;;0.85;;
1949;SDS011;975;48.760;9.152;2024-02-26T14:25:12;0.60;;;0.40;;
1949;SDS011;975;48.760;9.152;2024-02-26T14:28:00;0.65;;;0.30;;
1949;SDS011;975;48.760;9.152;2024-02-26T14:30:48;1.25;;;0.30;;
1949;SDS011;975;48.760;9.152;2024-02-26T14:33:37;0.40;;;0.20;;
1949;SDS011;975;48.760;9.152;2024-02-26T14:36:27;0.75;;;0.20;;
1949;SDS011;975;48.760;9.152;2024-02-26T14:39:15;0.20;;;0.20;;
1949;SDS011;975;48.760;9.152;2024-02-26T14:42:03;0.93;;;0.30;;
1949;SDS011;975;48.760;9.152;2024-02-26T14:44:51;2.55;;;1.20;;
1949;SDS011;975;48.760;9.152;2024-02-26T14:47:39;1.55;;;0.30;;
1949;SDS011;975;48.760;9.152;2024-02-26T14:50:27;0.70;;;0.43;;
1949;SDS011;975;48.760;9.152;2024-02-26T14:53:16;0.93;;;0.50;;
1949;SDS011;975;48.760;9.152;2024-02-26T14:56:07;1.35;;;0.43;;
1949;SDS011;975;48.760;9.152;2024-02-26T14:58:56;0.60;;;0.50;;
1949;SDS011;975;48.760;9.152;2024-02-26T15:01:44;0.60;;;0.32;;
1949;SDS011;975;48.760;9.152;2024-02-26T15:04:32;1.33;;;0.50;;
1949;SDS011;975;48.760;9.152;2024-02-26T15:07:21;3.75;;;0.50;;
1949;SDS011;975;48.760;9.152;2024-02-26T15:10:10;0.98;;;0.50;;
1949;SDS011;975;48.760;9.152;2024-02-26T15:12:58;0.85;;;0.40;;
1949;SDS011;975;48.760;9.152;2024-02-26T15:15:46;2.22;;;0.43;;
1949;SDS011;975;48.760;9.152;2024-02-26T15:18:34;2.65;;;0.75;;
1949;SDS011;975;48.760;9.152;2024-02-26T15:21:22;1.25;;;0.73;;
1949;SDS011;975;48.760;9.152;2024-02-26T15:24:10;1.75;;;0.60;;
1949;SDS011;975;48.760;9.152;2024-02-26T15:26:59;3.65;;;0.90;;
1949;SDS011;975;48.760;9.152;2024-02-26T15:29:48;2.63;;;1.02;;
1949;SDS011;975;48.760;9.152;2024-02-26T15:32:41;1.08;;;0.82;;
1949;SDS011;975;48.760;9.152;2024-02-26T15:35:29;2.08;;;0.98;;
1949;SDS011;975;48.760;9.152;2024-02-26T15:38:17;1.80;;;0.90;;
1949;SDS011;975;48.760;9.152;2024-02-26T15:41:10;0.88;;;0.52;;
1949;SDS011;975;48.760;9.152;2024-02-26T15:44:00;1.05;;;0.63;;
1949;SDS011;975;48.760;9.152;2024-02-26T15:46:48;2.47;;;0.70;;
1949;SDS011;975;48.760;9.152;2024-02-26T15:49:36;0.88;;;0.63;;
1949;SDS011;975;48.760;9.152;2024-02-26T15:52:24;1.50;;;0.60;;
1949;SDS011;975;48.760;9.152;2024-02-26T15:55:12;2.85;;;1.17;;
1949;SDS011;975;48.760;9.152;2024-02-26T15:58:00;1.98;;;0.60;;
1949;SDS011;975;48.760;9.152;2024-02-26T16:00:49;2.85;;;1.20;;
1949;SDS011;975;48.760;9.152;2024-02-26T16:03:37;2.30;;;1.20;;
1949;SDS011;975;48.760;9.152;2024-02-26T16:06:26;3.83;;;1.98;;
1949;SDS011;975;48.760;9.152;2024-02-26T16:09:15;1.90;;;1.00;;
1949;SDS011;975;48.760;9.152;2024-02-26T16:12:05;3.17;;;0.90;;
1949;SDS011;975;48.760;9.152;2024-02-26T16:14:55;3.20;;;1.08;;
1949;SDS011;975;48.760;9.152;2024-02-26T16:17:45;1.45;;;1.05;;
1949;SDS011;975;48.760;9.152;2024-02-26T16:20:33;1.85;;;1.00;;
1949;SDS011;975;48.760;9.152;2024-02-26T16:23:21;2.20;;;0.90;;
1949;SDS011;975;48.760;9.152;2024-02-26T16:26:09;1.92;;;0.95;;
1949;SDS011;975;48.760;9.152;2024-02-26T16:28:57;2.28;;;0.98;;
1949;SDS011;975;48.760;9.152;2024-02-26T16:31:45;1.95;;;1.00;;
1949;SDS011;975;48.760;9.152;2024-02-26T16:34:34;2.05;;;1.20;;
1949;SDS011;975;48.760;9.152;2024-02-26T16:37:22;2.72;;;1.75;;
1949;SDS011;975;48.760;9.152;2024-02-26T16:40:11;2.67;;;1.50;;
1949;SDS011;975;48.760;9.152;2024-02-26T16:43:01;2.17;;;1.45;;
1949;SDS011;975;48.760;9.152;2024-02-26T16:45:51;2.20;;;1.13;;
1949;SDS011;975;48.760;9.152;2024-02-26T16:48:39;3.10;;;1.30;;
1949;SDS011;975;48.760;9.152;2024-02-26T16:51:28;4.25;;;1.20;;
1949;SDS011;975;48.760;9.152;2024-02-26T16:54:16;1.80;;;1.30;;
1949;SDS011;975;48.760;9.152;2024-02-26T16:57:04;3.20;;;1.35;;
1949;SDS011;975;48.760;9.152;2024-02-26T16:59:52;2.58;;;1.40;;
1949;SDS011;975;48.760;9.152;2024-02-26T17:02:43;3.40;;;1.15;;
1949;SDS011;975;48.760;9.152;2024-02-26T17:05:33;2.00;;;1.50;;
1949;SDS011;975;48.760;9.152;2024-02-26T17:08:22;3.33;;;1.52;;
1949;SDS011;975;48.760;9.152;2024-02-26T17:11:10;4.00;;;1.52;;
1949;SDS011;975;48.760;9.152;2024-02-26T17:13:58;2.83;;;1.33;;
1949;SDS011;975;48.760;9.152;2024-02-26T17:16:46;2.40;;;1.63;;
1949;SDS011;975;48.760;9.152;2024-02-26T17:19:34;2.13;;;1.20;;
1949;SDS011;975;48.760;9.152;2024-02-26T17:22:22;2.55;;;1.30;;
1949;SDS011;975;48.760;9.152;2024-02-26T17:25:12;2.70;;;1.27;;
1949;SDS011;975;48.760;9.152;2024-02-26T17:28:02;2.03;;;1.17;;
1949;SDS011;975;48.760;9.152;2024-02-26T17:30:50;2.13;;;1.38;;
1949;SDS011;975;48.760;9.152;2024-02-26T17:33:38;2.83;;;0.98;;
1949;SDS011;975;48.760;9.152;2024-02-26T17:36:26;2.90;;;1.40;;
1949;SDS011;975;48.760;9.152;2024-02-26T17:42:05;3.40;;;1.30;;
1949;SDS011;975;48.760;9.152;2024-02-26T17:44:53;2.50;;;1.40;;
1949;SDS011;975;48.760;9.152;2024-02-26T17:47:41;2.38;;;1.00;;
1949;SDS011;975;48.760;9.152;2024-02-26T17:50:28;3.60;;;1.50;;
1949;SDS011;975;48.760;9.152;2024-02-26T17:53:16;1.95;;;1.25;;
1949;SDS011;975;48.760;9.152;2024-02-26T17:56:04;4.30;;;1.48;;